Time;durP1;ratioP1;P1;durP2;ratioP2;P2;SDS_P1;SDS_P2;PMS_P1;PMS_P2;Temp;Humidity;BMP_temperature;BMP_pressure;BME280_temperature;BME280_humidity;BME280_pressure;Samples;Min_cycle;Max_cycle;Signal;HPM_P1;HPM_P2
2022/04/01 00:00:15;;;;;;;1.20;1.10;;;;;;;5.34;100.00;94229.66;4984457;28;20296;-89
2022/04/01 00:02:44;;;;;;;1.87;1.20;;;;;;;5.33;100.00;94220.81;4972159;28;20212;-89
2022/04/01 00:05:12;;;;;;;2.10;1.30;;;;;;;5.38;100.00;94221.91;4977052;28;20238;-88
2022/04/01 00:07:40;;;;;;;1.20;1.10;;;;;;;5.40;100.00;94222.50;4969765;28;20219;-89
2022/04/01 00:10:09;;;;;;;1.40;1.30;;;;;;;5.37;100.00;94214.94;4986508;28;20224;-89
2022/04/01 00:12:41;;;;;;;1.43;1.27;;;;;;;5.31;100.00;94208.75;4979105;28;20217;-88
2022/04/01 00:15:12;;;;;;;1.60;1.30;;;;;;;5.34;100.00;94226.97;4977509;28;20209;-89
2022/04/01 00:17:39;;;;;;;1.40;1.30;;;;;;;5.34;100.00;94218.94;4978156;28;20220;-88
2022/04/01 00:20:07;;;;;;;1.73;1.40;;;;;;;5.34;100.00;94221.63;4981071;28;20210;-88
2022/04/01 00:22:34;;;;;;;1.20;1.10;;;;;;;5.37;100.00;94214.94;4987261;28;20211;-88
2022/04/01 00:25:01;;;;;;;1.37;1.27;;;;;;;5.38;100.00;94205.88;4975950;28;20237;-88
2022/04/01 00:27:29;;;;;;;1.40;1.30;;;;;;;5.42;100.00;94221.19;4982728;28;20205;-88
2022/04/01 00:29:57;;;;;;;1.30;1.20;;;;;;;5.42;100.00;94212.34;4979379;28;20219;-88
2022/04/01 00:32:24;;;;;;;1.60;1.47;;;;;;;5.44;100.00;94218.28;5061361;28;20209;-89
2022/04/01 00:34:52;;;;;;;1.47;1.37;;;;;;;5.37;100.00;94213.09;4985231;28;20208;-88
2022/04/01 00:37:20;;;;;;;1.70;1.60;;;;;;;5.30;100.00;94207.94;4981826;28;20247;-88
2022/04/01 00:39:48;;;;;;;1.63;1.53;;;;;;;5.24;100.00;94206.25;4973810;28;20209;-87
2022/04/01 00:42:15;;;;;;;2.47;1.43;;;;;;;5.24;100.00;94208.94;4977496;28;20208;-88
2022/04/01 00:44:43;;;;;;;1.90;1.60;;;;;;;5.21;100.00;94214.78;4985166;28;20238;-88
2022/04/01 00:47:13;;;;;;;1.73;1.60;;;;;;;5.14;100.00;94206.13;4984087;28;20220;-88
2022/04/01 00:49:42;;;;;;;2.10;1.60;;;;;;;5.16;100.00;94212.03;4985271;28;20211;-89
2022/04/01 00:52:13;;;;;;;1.73;1.60;;;;;;;5.18;100.00;94207.25;4991664;28;20304;-89
2022/04/01 00:54:41;;;;;;;1.50;1.40;;;;;;;5.17;100.00;94208.31;5009492;28;20213;-89
2022/04/01 00:57:10;;;;;;;2.50;1.90;;;;;;;5.21;100.00;94211.28;4978333;28;20208;-88
2022/04/01 00:59:38;;;;;;;2.00;1.50;;;;;;;5.20;100.00;94207.00;4977177;28;20246;-88
2022/04/01 01:02:08;;;;;;;2.20;1.60;;;;;;;5.27;100.00;94207.63;5061902;28;20251;-89
2022/04/01 01:04:38;;;;;;;1.73;1.50;;;;;;;5.25;100.00;94207.88;5082687;28;20205;-89
2022/04/01 01:07:05;;;;;;;2.03;1.63;;;;;;;5.18;100.00;94203.78;5089656;28;20236;-88
2022/04/01 01:09:33;;;;;;;3.87;1.70;;;;;;;5.22;100.00;94200.34;5092628;28;20213;-90
2022/04/01 01:12:01;;;;;;;1.10;1.00;;;;;;;5.11;100.00;94203.13;5082772;28;21670;-88
2022/04/01 01:14:31;;;;;;;1.40;1.30;;;;;;;5.11;100.00;94198.59;5094727;28;20205;-87
2022/04/01 01:16:59;;;;;;;1.37;1.00;;;;;;;5.06;100.00;94198.53;5082557;28;20258;-89
2022/04/01 01:19:28;;;;;;;1.30;1.20;;;;;;;5.06;100.00;94195.06;5085049;28;20212;-89
2022/04/01 01:21:57;;;;;;;1.20;1.10;;;;;;;4.96;100.00;94193.06;5076699;28;20205;-88
2022/04/01 01:24:28;;;;;;;2.13;1.40;;;;;;;5.00;100.00;94196.88;5080969;28;20241;-90
2022/04/01 01:26:57;;;;;;;1.23;1.10;;;;;;;4.94;100.00;94193.28;5079409;28;20220;-89
2022/04/01 01:29:26;;;;;;;1.53;1.30;;;;;;;4.99;100.00;94195.25;5083845;28;20203;-89
2022/04/01 01:31:54;;;;;;;1.30;1.20;;;;;;;4.90;100.00;94189.50;5078465;28;20212;-90
2022/04/01 01:34:22;;;;;;;1.30;1.20;;;;;;;4.97;100.00;94181.31;5079235;28;20225;-88
2022/04/01 01:36:51;;;;;;;1.23;1.10;;;;;;;4.87;100.00;94175.81;5086501;28;20207;-89
2022/04/01 01:39:18;;;;;;;1.53;1.40;;;;;;;4.85;100.00;94189.44;5085791;28;20201;-89
2022/04/01 01:41:49;;;;;;;1.10;1.00;;;;;;;4.83;100.00;94172.84;5085107;28;20196;-88
2022/04/01 01:44:18;;;;;;;1.10;1.00;;;;;;;4.79;100.00;94178.94;5085576;28;20205;-88
2022/04/01 01:46:45;;;;;;;1.00;0.90;;;;;;;4.73;100.00;94171.91;5089210;28;20279;-89
2022/04/01 01:49:13;;;;;;;1.00;1.00;;;;;;;4.77;100.00;94187.19;5087141;28;20310;-87
2022/04/01 01:54:44;;;;;;;1.00;1.00;;;;;;;4.73;100.00;94175.38;5078036;28;20293;-89
2022/04/01 01:57:16;;;;;;;1.10;1.00;;;;;;;4.73;100.00;94170.03;5077247;28;20283;-88
2022/04/01 01:59:43;;;;;;;1.23;1.13;;;;;;;4.74;100.00;94178.88;5071472;28;20217;-87
2022/04/01 02:02:11;;;;;;;3.30;1.03;;;;;;;4.79;100.00;94173.56;5088103;28;20327;-89
2022/04/01 02:04:40;;;;;;;0.70;0.70;;;;;;;4.74;100.00;94168.19;5072993;28;20277;-88
2022/04/01 02:07:09;;;;;;;2.10;1.00;;;;;;;4.74;100.00;94181.53;5089675;28;20229;-88
2022/04/01 02:09:36;;;;;;;0.93;0.93;;;;;;;4.67;100.00;94176.38;5075543;28;20217;-88
2022/04/01 02:12:05;;;;;;;0.90;0.90;;;;;;;4.67;100.00;94180.91;5083119;28;20216;-89
2022/04/01 02:14:36;;;;;;;0.80;0.80;;;;;;;4.61;100.00;94168.50;5081282;28;20228;-88
2022/04/01 02:17:04;;;;;;;1.00;1.00;;;;;;;4.58;100.00;94169.84;5079902;28;20213;-89
2022/04/01 02:19:32;;;;;;;0.90;0.90;;;;;;;4.62;100.00;94167.47;5092653;28;20217;-89
2022/04/01 02:22:01;;;;;;;1.20;1.10;;;;;;;4.65;100.00;94172.31;5086493;28;20205;-89
2022/04/01 02:24:32;;;;;;;0.90;0.90;;;;;;;4.56;100.00;94170.06;5082578;28;20283;-89
2022/04/01 02:26:59;;;;;;;1.33;1.10;;;;;;;4.57;100.00;94170.88;5084478;28;20267;-89
2022/04/01 02:29:29;;;;;;;0.90;0.90;;;;;;;4.55;100.00;94171.13;5079877;28;20231;-87
2022/04/01 02:32:31;;;;;;;1.10;1.00;;;;;;;4.48;100.00;94169.69;5054758;28;20217;-88
2022/04/01 02:35:13;;;;;;;1.40;1.30;;;;;;;4.46;100.00;94158.44;5103621;27;20203;-89
2022/04/01 02:37:42;;;;;;;1.10;1.00;;;;;;;4.56;100.00;94170.06;5094630;28;20217;-89
2022/04/01 02:40:12;;;;;;;1.07;1.03;;;;;;;4.54;100.00;94156.16;5081776;28;20208;-88
2022/04/01 02:42:41;;;;;;;1.10;1.00;;;;;;;4.52;100.00;94163.59;5075466;28;20205;-89
2022/04/01 02:45:11;;;;;;;0.90;0.90;;;;;;;4.50;100.00;94164.91;5079413;28;20205;-89
2022/04/01 02:47:42;;;;;;;1.10;1.00;;;;;;;4.48;100.00;94167.81;5085371;28;20274;-88
2022/04/01 02:50:10;;;;;;;1.37;1.00;;;;;;;4.48;100.00;94165.16;5102106;28;20200;-89
2022/04/01 02:52:37;;;;;;;1.10;1.00;;;;;;;4.50;100.00;94165.72;5077274;28;20268;-87
2022/04/01 02:55:06;;;;;;;1.50;1.03;;;;;;;4.46;100.00;94161.91;5085207;28;20207;-88
2022/04/01 02:57:34;;;;;;;1.23;1.10;;;;;;;4.48;100.00;94164.34;5077957;28;20196;-88
2022/04/01 03:00:02;;;;;;;1.20;1.10;;;;;;;4.44;100.00;94164.00;5078337;28;20232;-89
2022/04/01 03:02:31;;;;;;;1.60;1.20;;;;;;;4.42;100.00;94162.66;5080233;28;20225;-91
2022/04/01 03:05:00;;;;;;;2.03;1.10;;;;;;;4.39;100.00;94157.78;5081234;28;20228;-91
2022/04/01 03:07:27;;;;;;;1.30;1.20;;;;;;;4.42;100.00;94171.44;5085566;28;20270;-91
2022/04/01 03:09:55;;;;;;;2.87;1.20;;;;;;;4.38;100.00;94159.66;5081841;28;20221;-89
2022/04/01 03:12:25;;;;;;;1.10;1.00;;;;;;;4.38;100.00;94162.31;5079387;28;20200;-89
2022/04/01 03:14:52;;;;;;;1.27;1.10;;;;;;;4.42;100.00;94157.31;5076524;28;20194;-89
2022/04/01 03:17:38;;;;;;;1.07;0.97;;;;;;;4.47;100.00;94166.19;5084946;28;20207;-88
2022/04/01 03:20:30;;;;;;;1.20;1.10;;;;;;;4.43;100.00;94159.72;5071208;28;20279;-89
2022/04/01 03:22:58;;;;;;;1.37;1.23;;;;;;;4.47;100.00;94165.38;5084694;28;20295;-89
2022/04/01 03:25:33;;;;;;;1.20;1.10;;;;;;;4.46;100.00;94164.56;5081843;28;20189;-88
2022/04/01 03:28:18;;;;;;;1.03;0.97;;;;;;;4.44;100.00;94165.88;5094452;28;20208;-88
2022/04/01 03:30:51;;;;;;;1.70;1.20;;;;;;;4.46;100.00;94164.56;5084139;28;20212;-89
2022/04/01 03:33:21;;;;;;;0.97;0.93;;;;;;;4.45;100.00;94165.63;5075306;28;20289;-88
2022/04/01 03:35:50;;;;;;;1.37;1.13;;;;;;;4.43;100.00;94167.72;5073941;28;20207;-88
2022/04/01 03:38:22;;;;;;;1.10;1.00;;;;;;;4.40;100.00;94149.53;5079838;28;20282;-86
2022/04/01 03:40:51;;;;;;;0.80;0.80;;;;;;;4.34;100.00;94155.06;5081787;28;20232;-88
2022/04/01 03:43:23;;;;;;;0.90;0.90;;;;;;;4.36;100.00;94152.94;5077382;28;20205;-89
2022/04/01 03:45:54;;;;;;;1.97;1.00;;;;;;;4.41;100.00;94158.38;5085685;28;20212;-88
2022/04/01 03:48:28;;;;;;;1.00;1.00;;;;;;;4.37;100.00;94158.03;5102259;28;20208;-89
2022/04/01 03:50:58;;;;;;;1.10;1.00;;;;;;;4.35;100.00;94151.31;5077981;28;20206;-88
2022/04/01 03:53:30;;;;;;;1.33;0.90;;;;;;;4.29;100.00;94153.09;5086038;28;20211;-88
2022/04/01 03:56:06;;;;;;;1.73;1.20;;;;;;;4.30;100.00;94141.38;5095377;28;20205;-89
2022/04/01 03:58:53;;;;;;;1.60;1.33;;;;;;;4.37;100.00;94152.69;5078782;28;20255;-89
2022/04/01 04:01:40;;;;;;;0.90;0.90;;;;;;;4.31;100.00;94145.66;5024537;28;20279;-89
2022/04/01 04:04:09;;;;;;;1.13;1.03;;;;;;;4.36;100.00;94144.91;5070878;28;20211;-88
2022/04/01 04:06:40;;;;;;;1.60;1.10;;;;;;;4.28;100.00;94146.16;5064400;28;20234;-89
2022/04/01 04:09:07;;;;;;;1.70;1.37;;;;;;;4.26;100.00;94148.25;5066914;28;20209;-87
2022/04/01 04:11:37;;;;;;;1.00;0.90;;;;;;;4.26;100.00;94147.44;5069264;28;20204;-88
2022/04/01 04:14:26;;;;;;;3.10;1.00;;;;;;;4.36;100.00;94159.09;5070739;28;20215;-89
2022/04/01 04:16:57;;;;;;;1.20;1.10;;;;;;;4.36;100.00;94159.09;5065594;28;20243;-89
2022/04/01 04:19:34;;;;;;;1.17;1.07;;;;;;;4.32;100.00;94149.97;5066724;28;20216;-87
2022/04/01 04:22:10;;;;;;;1.13;1.00;;;;;;;4.43;100.00;94165.06;5068996;28;20211;-88
2022/04/01 04:24:44;;;;;;;2.13;1.17;;;;;;;4.28;100.00;94146.16;5097160;27;20294;-90
2022/04/01 04:27:15;;;;;;;1.10;1.00;;;;;;;4.35;100.00;94157.47;5078223;28;20223;-89
2022/04/01 04:29:48;;;;;;;0.97;0.90;;;;;;;4.33;100.00;94153.44;5074716;28;20220;-90
2022/04/01 04:32:34;;;;;;;1.10;1.00;;;;;;;4.45;100.00;94154.13;5065812;28;20261;-90
2022/04/01 04:35:04;;;;;;;0.90;0.90;;;;;;;4.45;100.00;94154.13;5078054;28;20215;-89
2022/04/01 04:37:36;;;;;;;1.10;1.00;;;;;;;4.40;100.00;94160.22;5064077;28;20202;-88
2022/04/01 04:40:05;;;;;;;1.57;0.93;;;;;;;4.36;100.00;94145.72;5085380;28;20284;-89
2022/04/01 04:42:34;;;;;;;1.37;0.93;;;;;;;4.42;100.00;94157.31;5064092;28;20279;-90
2022/04/01 04:45:04;;;;;;;1.10;1.00;;;;;;;4.31;100.00;94156.34;5073195;28;20238;-91
2022/04/01 04:47:33;;;;;;;1.60;1.50;;;;;;;4.36;100.00;94153.75;5065023;28;20323;-88
2022/04/01 04:50:02;;;;;;;0.93;0.87;;;;;;;4.32;100.00;94155.31;5062891;28;20302;-90
2022/04/01 04:52:36;;;;;;;1.17;1.03;;;;;;;4.33;100.00;94154.25;5063932;28;20208;-90
2022/04/01 04:55:07;;;;;;;0.90;0.90;;;;;;;4.36;100.00;94156.41;5070694;28;20211;-90
2022/04/01 04:57:48;;;;;;;1.23;1.13;;;;;;;4.34;100.00;94155.84;5064819;28;20208;-90
2022/04/01 05:00:19;;;;;;;1.53;1.03;;;;;;;4.42;100.00;94162.66;5066579;28;20208;-89
2022/04/01 05:03:12;;;;;;;1.23;1.00;;;;;;;4.42;100.00;94165.31;5065051;28;20353;-88
2022/04/01 05:05:44;;;;;;;1.13;1.03;;;;;;;4.35;100.00;94168.16;5079528;28;20218;-88
2022/04/01 05:08:38;;;;;;;0.80;0.80;;;;;;;4.29;100.00;94171.81;5005760;28;20220;-89
2022/04/01 05:11:35;;;;;;;1.20;1.00;;;;;;;4.38;100.00;94173.00;5063713;28;20286;-89
2022/04/01 05:14:13;;;;;;;1.40;1.30;;;;;;;4.39;100.00;94174.63;5080484;28;20204;-89
2022/04/01 05:16:51;;;;;;;1.23;1.13;;;;;;;4.38;100.00;94167.66;5072373;28;20226;-89
2022/04/01 05:19:26;;;;;;;2.73;1.10;;;;;;;4.36;100.00;94175.13;5055265;28;20295;-89
2022/04/01 05:22:01;;;;;;;1.70;1.13;;;;;;;4.37;100.00;94174.06;5072832;28;20212;-90
2022/04/01 05:24:38;;;;;;;0.93;0.90;;;;;;;4.32;100.00;94184.69;5073750;28;20226;-89
2022/04/01 05:27:08;;;;;;;1.57;1.13;;;;;;;4.33;100.00;94186.31;5060623;28;20307;-89
2022/04/01 05:30:12;;;;;;;1.23;1.10;;;;;;;4.28;100.00;94191.56;5073550;28;20222;-90
2022/04/01 05:32:58;;;;;;;1.10;1.00;;;;;;;4.18;100.00;94194.88;5063267;28;20207;-89
2022/04/01 05:35:29;;;;;;;2.10;1.30;;;;;;;4.22;100.00;94189.88;5070494;28;20223;-90
2022/04/01 05:37:59;;;;;;;1.17;1.07;;;;;;;4.13;100.00;94191.31;5069291;28;20223;-90
2022/04/01 05:40:29;;;;;;;1.27;1.17;;;;;;;4.15;100.00;94192.72;5085655;27;20220;-88
2022/04/01 05:42:58;;;;;;;2.70;0.97;;;;;;;4.02;100.00;94189.53;5070041;28;20210;-90
2022/04/01 05:45:44;;;;;;;1.03;0.97;;;;;;;4.01;100.00;94203.94;4999924;28;20211;-90
2022/04/01 05:48:14;;;;;;;1.47;1.00;;;;;;;4.08;100.00;94205.38;5066168;28;20223;-90
2022/04/01 05:50:42;;;;;;;0.93;0.93;;;;;;;3.99;100.00;94198.84;5073439;28;20208;-89
2022/04/01 05:53:11;;;;;;;1.00;0.90;;;;;;;3.98;100.00;94199.91;5062204;28;20201;-90
2022/04/01 05:55:48;;;;;;;1.63;1.00;;;;;;;3.97;100.00;94205.47;5064960;28;20207;-90
2022/04/01 05:58:16;;;;;;;1.00;1.00;;;;;;;3.98;100.00;94204.44;5075189;28;20213;-89
2022/04/01 06:00:54;;;;;;;1.20;1.10;;;;;;;3.93;100.00;94204.31;5073335;28;20227;-90
2022/04/01 06:03:53;;;;;;;1.60;0.87;;;;;;;3.95;100.00;94216.38;5069156;28;20204;-90
2022/04/01 06:06:29;;;;;;;1.10;1.00;;;;;;;3.92;100.00;94195.50;5060492;28;20315;-90
2022/04/01 06:09:03;;;;;;;0.77;0.77;;;;;;;3.94;100.00;94198.75;5064383;28;20234;-90
2022/04/01 06:12:01;;;;;;;1.20;1.10;;;;;;;3.97;100.00;94198.28;5007067;28;20240;-89
2022/04/01 06:14:59;;;;;;;1.57;1.47;;;;;;;3.97;100.00;94195.59;5015915;28;20219;-90
2022/04/01 06:18:16;;;;;;;1.20;1.10;;;;;;;4.05;100.00;94213.09;5001166;28;20337;-89
2022/04/01 06:20:49;;;;;;;1.00;1.00;;;;;;;3.99;100.00;94217.53;5072007;28;20290;-91
2022/04/01 06:23:29;;;;;;;0.90;0.90;;;;;;;3.93;100.00;94210.47;5067901;28;20223;-90
2022/04/01 06:26:00;;;;;;;2.47;1.10;;;;;;;3.85;100.00;94213.53;5067965;28;20216;-90
2022/04/01 06:28:32;;;;;;;1.10;1.00;;;;;;;3.95;100.00;94219.06;5071805;28;20220;-89
2022/04/01 06:31:06;;;;;;;1.27;1.10;;;;;;;3.87;100.00;94214.13;5067648;28;20212;-91
2022/04/01 06:33:49;;;;;;;1.53;1.00;;;;;;;3.92;100.00;94226.72;5073972;28;20222;-90
2022/04/01 06:36:40;;;;;;;2.70;1.10;;;;;;;3.90;100.00;94234.19;4993117;28;20222;-90
2022/04/01 06:39:10;;;;;;;0.97;0.97;;;;;;;3.90;100.00;94223.50;5060419;28;20204;-89
2022/04/01 06:41:45;;;;;;;3.37;1.27;;;;;;;3.92;100.00;94226.72;5054585;28;20205;-89
2022/04/01 06:44:34;;;;;;;1.87;1.10;;;;;;;3.93;100.00;94228.34;4977497;28;20212;-90
2022/04/01 06:47:20;;;;;;;1.20;0.90;;;;;;;3.93;100.00;94226.50;4999574;28;20253;-89
2022/04/01 06:49:49;;;;;;;1.40;1.30;;;;;;;3.86;100.00;94225.03;5069410;28;20203;-88
2022/04/01 06:52:35;;;;;;;3.43;1.70;;;;;;;3.93;100.00;94237.16;5004476;28;20225;-89
2022/04/01 06:55:21;;;;;;;4.00;1.57;;;;;;;3.91;100.00;94225.13;4990341;28;20215;-90
2022/04/01 06:57:57;;;;;;;3.43;1.40;;;;;;;3.90;100.00;94234.19;5070857;28;20218;-89
2022/04/01 07:00:34;;;;;;;3.20;1.37;;;;;;;3.97;100.00;94245.53;5002559;28;20261;-90
2022/04/01 07:03:01;;;;;;;2.83;1.30;;;;;;;4.00;100.00;94235.16;5070276;28;20298;-91
2022/04/01 07:05:29;;;;;;;2.27;1.43;;;;;;;3.95;100.00;94237.75;5061192;28;20235;-89
2022/04/01 07:07:57;;;;;;;3.47;1.70;;;;;;;4.01;100.00;94238.63;5067661;28;20224;-89
2022/04/01 07:10:24;;;;;;;1.90;1.50;;;;;;;3.99;100.00;94246.09;5063000;28;20239;-89
2022/04/01 07:12:52;;;;;;;1.77;1.27;;;;;;;3.96;100.00;94235.88;5082461;28;20290;-89
2022/04/01 07:15:19;;;;;;;1.87;1.10;;;;;;;3.92;100.00;94237.41;5058635;28;20204;-90
2022/04/01 07:17:47;;;;;;;2.23;1.00;;;;;;;3.95;100.00;94245.75;5060938;28;20215;-88
2022/04/01 07:20:15;;;;;;;1.37;1.00;;;;;;;3.97;100.00;94243.66;5062157;28;20209;-90
2022/04/01 07:22:42;;;;;;;0.80;0.70;;;;;;;4.01;100.00;94242.13;5069212;28;20211;-89
2022/04/01 07:25:11;;;;;;;1.30;0.97;;;;;;;4.05;100.00;94250.47;5064912;28;20231;-91
2022/04/01 07:27:39;;;;;;;1.13;0.93;;;;;;;4.02;100.00;94253.59;5055448;28;20219;-90
2022/04/01 07:30:08;;;;;;;2.43;1.10;;;;;;;3.99;100.00;94243.44;5059971;28;20297;-90
2022/04/01 07:32:37;;;;;;;1.20;0.90;;;;;;;4.00;100.00;94253.03;5079253;28;20300;-90
2022/04/01 07:35:09;;;;;;;0.93;0.90;;;;;;;3.97;100.00;94245.53;5063373;28;20227;-90
2022/04/01 07:37:37;;;;;;;1.17;0.70;;;;;;;4.03;100.00;94250.69;5053877;28;20227;-88
2022/04/01 07:40:05;;;;;;;0.67;0.67;;;;;;;4.05;100.00;94255.81;5064594;28;20214;-89
2022/04/01 07:42:34;;;;;;;0.70;0.70;;;;;;;4.05;100.00;94263.81;5089324;27;20289;-88
2022/04/01 07:45:01;;;;;;;0.70;0.70;;;;;;;4.05;100.00;94258.47;5088371;27;20231;-89
2022/04/01 07:47:28;;;;;;;0.60;0.60;;;;;;;3.99;100.00;94254.09;5076795;28;20213;-87
2022/04/01 07:49:56;;;;;;;0.60;0.60;;;;;;;4.01;100.00;94257.31;5074481;28;20208;-88
2022/04/01 07:52:24;;;;;;;1.13;0.60;;;;;;;4.03;100.00;94258.72;5080619;28;20303;-88
2022/04/01 07:54:52;;;;;;;0.60;0.60;;;;;;;3.95;100.00;94244.94;5068614;28;20230;-89
2022/04/01 07:57:20;;;;;;;0.60;0.60;;;;;;;3.92;100.00;94248.09;5076206;28;20201;-88
2022/04/01 07:59:49;;;;;;;0.70;0.70;;;;;;;3.91;100.00;94252.66;5074181;28;20212;-89
2022/04/01 08:02:18;;;;;;;0.97;0.67;;;;;;;3.90;100.00;94263.56;5079386;28;20272;-88
2022/04/01 08:04:46;;;;;;;0.60;0.60;;;;;;;3.98;100.00;94263.16;5072099;28;20276;-89
2022/04/01 08:07:13;;;;;;;0.70;0.70;;;;;;;4.00;100.00;94258.38;5087025;27;20208;-88
2022/04/01 08:09:50;;;;;;;1.03;0.90;;;;;;;4.04;100.00;94267.53;5099633;28;20321;-88
2022/04/01 08:12:17;;;;;;;0.70;0.70;;;;;;;3.95;100.00;94258.28;5087933;28;20211;-88
2022/04/01 08:14:44;;;;;;;0.70;0.63;;;;;;;3.96;100.00;94276.75;5073498;28;20484;-89
2022/04/01 08:17:14;;;;;;;0.60;0.60;;;;;;;3.95;100.00;94264.44;5077246;28;20219;-89
2022/04/01 08:19:42;;;;;;;1.00;0.93;;;;;;;3.91;100.00;94270.53;5066126;28;20216;-89
2022/04/01 08:22:10;;;;;;;1.43;1.00;;;;;;;4.02;100.00;94274.97;5088059;28;20219;-89
2022/04/01 08:24:38;;;;;;;0.67;0.60;;;;;;;4.04;100.00;94278.22;5062721;28;20235;-88
2022/04/01 08:27:08;;;;;;;0.93;0.87;;;;;;;4.07;100.00;94280.41;5063217;28;20208;-89
2022/04/01 08:29:36;;;;;;;1.00;0.90;;;;;;;4.04;100.00;94287.03;5081065;28;20319;-89
2022/04/01 08:32:07;;;;;;;3.13;1.00;;;;;;;3.99;100.00;94286.16;5062314;28;20239;-89
2022/04/01 08:34:39;;;;;;;1.10;0.80;;;;;;;4.01;100.00;94295.53;5078238;28;20207;-88
2022/04/01 08:37:10;;;;;;;0.80;0.80;;;;;;;3.96;100.00;94292.78;5061262;28;20216;-88
2022/04/01 08:39:43;;;;;;;0.70;0.70;;;;;;;4.10;100.00;94309.28;5067400;28;20213;-88
2022/04/01 08:42:12;;;;;;;0.60;0.60;;;;;;;4.07;100.00;94312.47;5068103;28;20212;-88
2022/04/01 08:44:41;;;;;;;2.37;0.93;;;;;;;4.03;100.00;94305.97;5062347;28;20204;-88
2022/04/01 08:47:09;;;;;;;1.30;0.90;;;;;;;4.14;100.00;94316.59;5079809;28;20238;-88
2022/04/01 08:49:36;;;;;;;1.13;1.03;;;;;;;4.21;100.00;94307.63;5068476;28;20215;-88
2022/04/01 08:52:05;;;;;;;1.33;0.80;;;;;;;4.33;100.00;94319.88;5066795;28;20235;-89
2022/04/01 08:54:33;;;;;;;0.60;0.60;;;;;;;4.29;100.00;94316.06;5065581;28;20212;-88
2022/04/01 08:57:00;;;;;;;0.93;0.87;;;;;;;4.18;100.00;94314.25;5072487;28;20346;-88
2022/04/01 08:59:30;;;;;;;3.80;1.00;;;;;;;4.24;100.00;94323.19;5078393;28;20243;-89
2022/04/01 09:02:04;;;;;;;1.10;0.90;;;;;;;4.22;100.00;94328.75;5069436;28;20227;-89
2022/04/01 09:04:31;;;;;;;0.80;0.80;;;;;;;4.22;100.00;94323.41;5062966;28;20230;-88
2022/04/01 09:07:10;;;;;;;1.00;0.90;;;;;;;4.23;100.00;94329.56;5070258;28;20335;-89
2022/04/01 09:09:37;;;;;;;0.60;0.60;;;;;;;4.14;100.00;94340.63;5058320;28;20288;-89
2022/04/01 09:12:10;;;;;;;1.20;1.00;;;;;;;4.16;100.00;94340.41;5070428;28;20219;-88
2022/04/01 09:14:39;;;;;;;3.23;0.70;;;;;;;4.12;100.00;94336.56;5070694;28;20210;-89
2022/04/01 09:17:07;;;;;;;1.07;0.97;;;;;;;4.16;100.00;94346.56;5072085;28;20203;-89
2022/04/01 09:19:36;;;;;;;0.90;0.80;;;;;;;4.22;100.00;94349.31;5068951;28;20204;-89
2022/04/01 09:22:21;;;;;;;1.20;0.90;;;;;;;4.22;100.00;94344.78;5072748;28;20207;-89
2022/04/01 09:25:01;;;;;;;1.43;0.80;;;;;;;4.18;100.00;94348.97;5062899;28;20234;-90
2022/04/01 09:27:43;;;;;;;0.60;0.60;;;;;;;4.23;100.00;94359.75;5072232;28;20477;-90
2022/04/01 09:30:14;;;;;;;0.80;0.80;;;;;;;4.26;100.00;94347.75;5066637;28;20295;-88
2022/04/01 09:32:44;;;;;;;0.80;0.80;;;;;;;4.36;100.00;94358.63;5075014;28;20216;-90
2022/04/01 09:35:12;;;;;;;1.00;0.90;;;;;;;4.25;100.00;94360.34;5071264;28;20211;-89
2022/04/01 09:37:41;;;;;;;0.87;0.87;;;;;;;4.22;100.00;94350.13;5078881;28;20227;-88
2022/04/01 09:40:10;;;;;;;1.87;0.83;;;;;;;4.33;100.00;94357.28;5084085;28;20212;-89
2022/04/01 09:42:38;;;;;;;0.50;0.50;;;;;;;4.33;100.00;94362.63;5069066;28;20212;-89
2022/04/01 09:45:07;;;;;;;0.70;0.70;;;;;;;4.29;100.00;94368.66;5071444;28;20204;-90
2022/04/01 09:47:38;;;;;;;0.70;0.70;;;;;;;4.35;100.00;94365.84;5072844;28;20204;-90
2022/04/01 09:50:14;;;;;;;0.70;0.70;;;;;;;4.37;100.00;94377.09;5067506;28;20235;-89
2022/04/01 09:52:42;;;;;;;1.70;0.70;;;;;;;4.29;100.00;94377.50;5083291;28;20261;-88
2022/04/01 09:55:10;;;;;;;1.20;0.73;;;;;;;4.29;100.00;94372.16;5072435;28;20204;-87
2022/04/01 09:57:37;;;;;;;0.60;0.60;;;;;;;4.34;100.00;94374.13;5082084;28;20201;-88
2022/04/01 10:00:09;;;;;;;0.60;0.60;;;;;;;4.35;100.00;94383.72;5067672;28;20310;-89
2022/04/01 10:02:41;;;;;;;0.60;0.60;;;;;;;4.33;100.00;94375.97;5000641;28;20254;-89
2022/04/01 10:05:09;;;;;;;0.60;0.60;;;;;;;4.35;100.00;94378.38;5059945;28;20218;-88
2022/04/01 10:07:37;;;;;;;2.40;0.90;;;;;;;4.46;100.00;94383.69;5078311;28;20276;-88
2022/04/01 10:10:07;;;;;;;0.73;0.73;;;;;;;4.46;100.00;94386.34;5071071;28;20242;-89
2022/04/01 10:12:42;;;;;;;0.60;0.60;;;;;;;4.46;100.00;94386.34;5067420;28;20215;-87
2022/04/01 10:15:11;;;;;;;0.90;0.80;;;;;;;4.41;100.00;94378.25;5062914;28;20258;-90
2022/04/01 10:17:42;;;;;;;1.70;0.70;;;;;;;4.51;100.00;94382.94;5081155;28;20197;-87
2022/04/01 10:20:13;;;;;;;0.60;0.60;;;;;;;4.56;100.00;94378.53;5074407;28;20225;-89
2022/04/01 10:22:42;;;;;;;0.60;0.60;;;;;;;4.63;100.00;94380.22;5072742;28;20207;-88
2022/04/01 10:25:19;;;;;;;0.50;0.50;;;;;;;4.68;100.00;94380.34;5059364;28;20231;-88
2022/04/01 10:27:49;;;;;;;0.50;0.50;;;;;;;4.61;100.00;94385.00;5063402;28;20218;-87
2022/04/01 10:30:19;;;;;;;0.50;0.50;;;;;;;4.61;100.00;94374.31;5081676;28;20282;-88
2022/04/01 10:32:48;;;;;;;0.50;0.50;;;;;;;4.55;100.00;94376.91;5083034;28;20223;-87
2022/04/01 10:35:25;;;;;;;0.60;0.60;;;;;;;4.64;100.00;94380.00;5067186;28;20215;-89
2022/04/01 10:38:15;;;;;;;0.50;0.50;;;;;;;4.59;100.00;94381.78;5073762;28;20233;-85
2022/04/01 10:40:44;;;;;;;1.10;1.10;;;;;;;4.69;100.00;94387.28;5064326;28;20222;-87
2022/04/01 10:43:13;;;;;;;0.60;0.60;;;;;;;4.80;100.00;94381.06;5072007;28;20299;-87
2022/04/01 10:45:42;;;;;;;0.80;0.80;;;;;;;4.76;100.00;94388.78;5067392;28;20208;-87
2022/04/01 10:51:41;;;;;;;0.70;0.70;;;;;;;4.76;100.00;94399.47;5063809;28;20498;-87
2022/04/01 10:54:42;;;;;;;0.70;0.70;;;;;;;4.83;100.00;94396.63;5083766;28;20261;-89
2022/04/01 10:57:11;;;;;;;0.67;0.67;;;;;;;4.70;100.00;94388.91;5075239;27;20207;-81
2022/04/01 10:59:45;;;;;;;0.70;0.70;;;;;;;4.62;100.00;94398.13;5067009;28;20454;-85
2022/04/01 11:02:15;;;;;;;0.83;0.77;;;;;;;4.50;100.00;94397.38;5076980;28;20527;-86
2022/04/01 11:04:44;;;;;;;0.83;0.70;;;;;;;4.45;100.00;94406.13;5082979;28;20200;-85
2022/04/01 11:07:30;;;;;;;0.90;0.90;;;;;;;4.44;100.00;94407.16;5078552;28;20205;-87
2022/04/01 11:09:59;;;;;;;0.90;0.90;;;;;;;4.42;100.00;94400.44;5080914;28;20220;-87
2022/04/01 11:12:36;;;;;;;0.90;0.90;;;;;;;4.42;100.00;94411.91;5085772;28;20205;-87
2022/04/01 11:15:16;;;;;;;1.00;0.90;;;;;;;4.32;100.00;94413.63;5077360;28;20215;-86
2022/04/01 11:18:09;;;;;;;0.93;0.90;;;;;;;4.43;100.00;94426.09;5077653;28;20205;-86
2022/04/01 11:20:39;;;;;;;0.90;0.70;;;;;;;4.41;100.00;94429.03;5075879;28;20203;-86
2022/04/01 11:23:14;;;;;;;1.20;1.00;;;;;;;4.37;100.00;94430.53;5080187;28;20228;-86
2022/04/01 11:25:53;;;;;;;2.50;1.00;;;;;;;4.35;100.00;94421.94;5099705;27;20203;-86
2022/04/01 11:28:20;;;;;;;1.10;0.90;;;;;;;4.38;100.00;94432.16;5080485;28;20232;-85
2022/04/01 11:31:09;;;;;;;2.00;1.00;;;;;;;4.41;100.00;94436.22;5083205;28;20308;-87
2022/04/01 11:33:36;;;;;;;0.70;0.70;;;;;;;4.41;100.00;94429.03;5084827;28;20579;-85
2022/04/01 11:36:04;;;;;;;1.27;1.10;;;;;;;4.40;100.00;94442.63;5091194;28;20211;-85
2022/04/01 11:38:33;;;;;;;2.97;1.07;;;;;;;4.53;100.00;94428.97;5072594;28;20212;-85
2022/04/01 11:41:03;;;;;;;1.13;1.00;;;;;;;4.62;100.00;94427.53;5080238;28;20209;-85
2022/04/01 11:43:33;;;;;;;0.80;0.80;;;;;;;4.68;100.00;94428.44;5094102;28;20205;-84
2022/04/01 11:46:04;;;;;;;1.00;0.80;;;;;;;4.67;100.00;94442.84;5083396;28;20219;-85
2022/04/01 11:48:33;;;;;;;1.23;1.00;;;;;;;4.61;100.00;94441.13;5072094;28;20205;-86
2022/04/01 11:51:02;;;;;;;0.70;0.70;;;;;;;4.58;100.00;94439.75;5078078;28;20213;-84
2022/04/01 11:53:31;;;;;;;0.80;0.80;;;;;;;4.66;100.00;94441.22;5077174;28;20237;-86
2022/04/01 11:56:00;;;;;;;0.73;0.73;;;;;;;4.72;100.00;94445.63;5091743;28;20211;-85
2022/04/01 11:58:34;;;;;;;0.73;0.73;;;;;;;4.77;100.00;94445.69;5083925;28;20217;-86
2022/04/01 12:01:01;;;;;;;0.70;0.70;;;;;;;4.59;100.00;94456.63;5070636;28;20334;-84
2022/04/01 12:03:30;;;;;;;0.60;0.60;;;;;;;4.59;100.00;94446.72;4979700;28;20258;-86